Weather history for 0316

Weather History For Prescott AZ

This page updates 5 minutes after midnight. GMT -7

Station: KPRC0 Rows: 26

Return to today's weather
Year Date Temp (°F) Tmin (°F) Tmax (°F) RH% Prcp Snow Wind Gust Pres Sun Cloud
2000 2000-03-16 49.8 35.1 64.0 33 12.2 29.94 0
2001 2001-03-16 48.6 35.1 60.1 37 17.0 29.75 0
2002 2002-03-16 34.7 26.6 41.0 38 17.5 29.87 6
2003 2003-03-16 44.2 41.0 48.2 82 16.0 29.60 8
2004 2004-03-16 56.3 37.4 71.6 27 9.0 30.01 0
2005 2005-03-16 40.6 24.1 54.0 39 0.0 10.1 30.06 0
2006 2006-03-16 44.4 28.0 59.0 40 0.0 10.7 30.02 0
2007 2007-03-16 62.1 42.1 81.0 22 0.0 8.0 30.05 0
2008 2008-03-16 32.5 27.0 37.9 68 13.0 29.65 6
2009 2009-03-16 49.1 32.0 68.0 37 0.0 8.9 30.14 0
2010 2010-03-16 48.4 30.0 66.9 44 0.0 4.7 30.29 0
2011 2011-03-16 57.4 43.0 72.0 34 0.0 17.8 29.96 0
2012 2012-03-16 54.7 37.0 69.8 26 0.0 13.2 29.88 0
2013 2013-03-16 58.3 32 12.1 29.80 1
2014 2014-03-16 51.8 32.0 69.1 17 0.0 11.3 30.19 0
2015 2015-03-16 57.2 41.0 73.0 33 0.0 9.5 30.00 0
2016 2016-03-16 50.9 34.0 69.1 27 0.0 10.1 29.98 0
2017 2017-03-16 58.5 41.0 73.9 39 0.0 11.0 30.07 0
2018 2018-03-16 43.2 30.0 55.0 58 0.0 15.1 29.88 0
2019 2019-03-16 47.8 30.9 62.1 46 0.0 9.3 30.05 1
2020 2020-03-16 47.3 35.1 59.0 63 0.0 11.0 29.94 0
2021 2021-03-16 32.4 25.0 39.9 72 10.3 29.85
2022 2022-03-16 52.5 43.0 64.0 31 0.0 17.5 29.84 1
2023 2023-03-16 43.2 34.0 52.0 74 0.0 8.5 29.88 4
2024 2024-03-16 37.0 34.0 44.1 85 11.7 29.95 6
2025 2025-03-16 44.4 30.0 63.0 54 0.0 7.3 30.13 0
Average Low 33.9
Average High 60.7

Daily High / Low by Year (03/16)

Barometric Pressure by Year (03/16)

Weather data provided by Meteostat